createdAt,value
2017-04-20T00:02:30.997Z,1026.5
2017-04-20T00:12:43.039Z,1026.4
2017-04-20T00:22:55.045Z,1026.4
2017-04-20T00:33:07.076Z,1026.3
2017-04-20T00:43:19.059Z,1026.2
2017-04-20T00:53:31.091Z,1026.2
2017-04-20T01:03:43.120Z,1026.2
2017-04-20T01:13:55.194Z,1026.1
2017-04-20T01:24:07.302Z,1026.2
2017-04-20T01:34:19.431Z,1026.1
2017-04-20T01:44:31.607Z,1026.1
2017-04-20T01:54:43.793Z,1026.1
2017-04-20T02:04:55.905Z,1026.2
2017-04-20T02:15:08.040Z,1026
2017-04-20T02:25:20.201Z,1026.1
2017-04-20T02:35:32.303Z,1026
2017-04-20T02:45:44.432Z,1026.1
2017-04-20T02:55:56.665Z,1026.3
2017-04-20T03:06:08.925Z,1026.2
2017-04-20T03:16:21.189Z,1026.2
2017-04-20T03:26:33.497Z,1026.2
2017-04-20T03:36:45.757Z,1026.2
2017-04-20T03:46:58.107Z,1026.1
2017-04-20T03:57:10.426Z,1026
2017-04-20T04:07:22.771Z,1026.1
2017-04-20T04:17:35.067Z,1026.2
2017-04-20T04:27:47.365Z,1026.2
2017-04-20T04:37:59.627Z,1026.2
2017-04-20T04:48:11.777Z,1026.3
2017-04-20T04:58:23.877Z,1026.3
2017-04-20T05:08:35.829Z,1026.3
2017-04-20T05:18:47.569Z,1026.3
2017-04-20T05:28:59.097Z,1026.4
2017-04-20T05:39:10.489Z,1026.5
2017-04-20T05:49:21.704Z,1026.5
2017-04-20T05:59:32.777Z,1026.5
2017-04-20T06:09:43.658Z,1026.6
2017-04-20T06:19:54.281Z,1026.6
2017-04-20T06:30:04.822Z,1026.6
2017-04-20T06:40:15.161Z,1026.8
2017-04-20T06:50:25.259Z,1026.5
2017-04-20T07:00:35.185Z,1026.6
2017-04-20T07:10:45.053Z,1026.7
2017-04-20T07:20:54.759Z,1026.8
2017-04-20T07:31:04.339Z,1026.8
2017-04-20T07:41:13.854Z,1026.7
2017-04-20T07:51:23.309Z,1026.7
2017-04-20T08:01:32.685Z,1026.7
2017-04-20T08:11:41.970Z,1026.7
2017-04-20T08:21:51.237Z,1026.7
2017-04-20T08:32:00.492Z,1026.7
2017-04-20T08:42:09.690Z,1026.6
2017-04-20T08:52:18.856Z,1026.7
2017-04-20T09:02:28.038Z,1026.6
2017-04-20T09:12:37.085Z,1026.6
2017-04-20T09:22:46.012Z,1026.7
2017-04-20T09:32:54.896Z,1026.5
2017-04-20T09:43:03.749Z,1026.5
2017-04-20T09:53:12.607Z,1026.7
2017-04-20T10:03:21.661Z,1026.7
2017-04-20T10:13:30.642Z,1026.5
2017-04-20T10:23:39.531Z,1026.4
2017-04-20T10:33:48.415Z,1026.4
2017-04-20T10:43:57.325Z,1027
2017-04-20T10:54:06.279Z,1027.1
2017-04-20T11:04:15.218Z,1027
2017-04-20T11:14:24.103Z,1026.9
2017-04-20T11:24:32.955Z,1026.6
2017-04-20T11:34:41.875Z,1026.7
2017-04-20T11:44:50.838Z,1026.6
2017-04-20T11:54:59.726Z,1026.6
2017-04-20T12:05:08.721Z,1026.4
2017-04-20T12:15:17.605Z,1026.2
2017-04-20T12:25:26.480Z,1025.6
2017-04-20T12:35:35.209Z,1025.5
2017-04-20T12:45:43.941Z,1025.3
2017-04-20T12:55:52.750Z,1025.3
2017-04-20T13:06:01.524Z,1025
2017-04-20T13:16:10.212Z,1025
2017-04-20T13:26:18.989Z,1024.7
2017-04-20T13:36:27.722Z,1024.7
2017-04-20T13:46:36.460Z,1024.5
2017-04-20T13:56:45.247Z,1024.4
2017-04-20T14:06:54.043Z,1024.3
2017-04-20T14:17:02.792Z,1024.1
2017-04-20T14:27:11.532Z,1023.9
2017-04-20T14:37:20.184Z,1023.9
2017-04-20T14:47:28.816Z,1023.8
2017-04-20T14:57:37.478Z,1023.9
2017-04-20T15:07:46.257Z,1023.5
2017-04-20T15:17:54.889Z,1023.5
2017-04-20T15:28:03.596Z,1023.3
2017-04-20T15:38:12.632Z,1023.3
2017-04-20T15:48:21.847Z,1023.2
2017-04-20T15:58:31.218Z,1023.2
2017-04-20T16:08:40.709Z,1023.1
2017-04-20T16:18:50.290Z,1023
2017-04-20T16:29:00.038Z,1023
2017-04-20T16:39:09.809Z,1023
2017-04-20T16:49:19.664Z,1022.8
2017-04-20T16:59:29.574Z,1023
2017-04-20T17:09:39.465Z,1022.9
2017-04-20T17:19:49.319Z,1023
2017-04-20T17:29:59.156Z,1022.9
2017-04-20T17:40:09.069Z,1022.9
2017-04-20T17:50:19.262Z,1022.9
2017-04-20T18:00:29.625Z,1022.8
2017-04-20T18:10:40.094Z,1022.8
2017-04-20T18:20:50.630Z,1022.7
2017-04-20T18:31:01.363Z,1022.6
2017-04-20T18:41:12.123Z,1022.6
2017-04-20T18:51:22.911Z,1022.7
2017-04-20T19:01:33.690Z,1022.7
2017-04-20T19:11:44.453Z,1022.8
2017-04-20T19:21:55.245Z,1022.9
2017-04-20T19:32:06.128Z,1022.9
2017-04-20T19:42:17.086Z,1022.9
2017-04-20T19:52:28.134Z,1022.9
2017-04-20T20:02:39.056Z,1022.8
2017-04-20T20:12:50.055Z,1022.8
2017-04-20T20:23:01.048Z,1022.7
2017-04-20T20:33:12.042Z,1022.7
2017-04-20T20:43:23.132Z,1022.5
2017-04-20T20:53:34.230Z,1022.5
2017-04-20T21:03:45.312Z,1022.5
2017-04-20T21:13:56.387Z,1022.4
2017-04-20T21:24:07.495Z,1022.4
2017-04-20T21:34:18.571Z,1022.4
2017-04-20T21:44:29.605Z,1022.4
2017-04-20T21:54:40.682Z,1022.3
2017-04-20T22:04:51.756Z,1022.3
2017-04-20T22:15:02.826Z,1022.3
2017-04-20T22:25:13.957Z,1022.2
2017-04-20T22:35:25.117Z,1022.1
2017-04-20T22:45:36.311Z,1022.1
2017-04-20T22:55:47.411Z,1021.9
2017-04-20T23:05:58.512Z,1021.9
2017-04-20T23:16:09.655Z,1021.8
2017-04-20T23:26:20.723Z,1021.8
2017-04-20T23:36:31.806Z,1021.8
2017-04-20T23:46:42.883Z,1021.8
2017-04-20T23:56:53.967Z,1021.6
